Time;durP1;ratioP1;P1;durP2;ratioP2;P2;SDS_P1;SDS_P2;PMS_P1;PMS_P2;Temp;Humidity;BMP_temperature;BMP_pressure;BME280_temperature;BME280_humidity;BME280_pressure;Samples;Min_cycle;Max_cycle;Signal;HPM_P1;HPM_P2
2022/11/04 00:01:58;;;;;;;;;;;9.60;99.90;;;;;;4959645;28;19926;-72
2022/11/04 00:04:27;;;;;;;;;;;9.60;99.90;;;;;;4962621;28;19977;-72
2022/11/04 00:06:56;;;;;;;;;;;9.50;99.90;;;;;;4960885;28;20035;-72
2022/11/04 00:09:23;;;;;;;;;;;9.60;99.90;;;;;;4964995;28;19930;-72
2022/11/04 00:14:35;;;;;;;;;;;9.60;99.90;;;;;;4974789;28;19965;-72
2022/11/04 00:17:21;;;;;;;;;;;9.60;99.90;;;;;;4960957;28;19934;-72
2022/11/04 00:30:48;;;;;;;;;;;9.60;99.90;;;;;;4961832;28;20472;-72
2022/11/04 00:33:26;;;;;;;;;;;9.60;99.90;;;;;;4954887;28;19958;-71
2022/11/04 00:35:55;;;;;;;;;;;9.60;99.90;;;;;;4955854;28;20038;-72
2022/11/04 00:38:23;;;;;;;;;;;9.60;99.90;;;;;;4963213;28;19941;-71
2022/11/04 00:40:50;;;;;;;;;;;9.60;99.90;;;;;;4960130;28;19989;-72
2022/11/04 00:43:17;;;;;;;;;;;9.60;99.90;;;;;;4959531;28;20022;-72
2022/11/04 00:45:44;;;;;;;;;;;9.60;99.90;;;;;;4956680;28;20331;-72
2022/11/04 00:48:11;;;;;;;;;;;9.60;99.90;;;;;;4960226;28;19969;-72
2022/11/04 00:50:38;;;;;;;;;;;9.60;99.90;;;;;;4959705;28;20156;-71
2022/11/04 00:53:04;;;;;;;;;;;9.60;99.90;;;;;;4961367;28;19927;-72
2022/11/04 00:55:33;;;;;;;;;;;9.60;99.90;;;;;;4962725;28;20020;-71
2022/11/04 00:57:59;;;;;;;;;;;9.60;99.90;;;;;;4968829;28;19933;-72
2022/11/04 01:00:26;;;;;;;;;;;9.60;99.90;;;;;;4969686;28;19930;-72
2022/11/04 01:02:53;;;;;;;;;;;9.60;99.90;;;;;;4961563;28;19934;-72
2022/11/04 01:05:20;;;;;;;;;;;9.60;99.90;;;;;;4962930;28;19926;-72
2022/11/04 01:07:47;;;;;;;;;;;9.60;99.90;;;;;;4954414;28;20380;-71
2022/11/04 01:10:13;;;;;;;;;;;9.60;99.90;;;;;;4956842;28;19981;-72
2022/11/04 01:12:42;;;;;;;;;;;9.60;99.90;;;;;;4955134;28;20637;-72
2022/11/04 01:15:09;;;;;;;;;;;9.60;99.90;;;;;;4959259;28;20388;-72
2022/11/04 01:17:36;;;;;;;;;;;9.60;99.90;;;;;;4955288;28;19926;-72
2022/11/04 01:20:03;;;;;;;;;;;9.60;99.90;;;;;;4956368;28;19977;-72
2022/11/04 01:22:30;;;;;;;;;;;9.60;99.90;;;;;;4958493;28;20418;-72
2022/11/04 01:24:57;;;;;;;;;;;9.60;99.90;;;;;;4954569;28;20658;-71
2022/11/04 01:27:23;;;;;;;;;;;9.60;99.90;;;;;;4956421;28;19930;-71
2022/11/04 01:29:52;;;;;;;;;;;9.60;99.90;;;;;;4963083;28;19969;-72
2022/11/04 01:32:18;;;;;;;;;;;9.60;99.90;;;;;;4959609;28;19933;-72
2022/11/04 01:34:46;;;;;;;;;;;9.60;99.90;;;;;;4953287;28;20059;-72
2022/11/04 01:37:13;;;;;;;;;;;9.60;99.90;;;;;;4959504;28;20201;-72
2022/11/04 01:39:39;;;;;;;;;;;9.60;99.90;;;;;;4961357;28;19965;-72
2022/11/04 01:42:06;;;;;;;;;;;9.60;99.90;;;;;;4955900;28;19957;-72
2022/11/04 01:44:54;;;;;;;;;;;9.60;99.90;;;;;;4960783;28;19985;-71
2022/11/04 01:47:22;;;;;;;;;;;9.60;99.90;;;;;;4961840;28;20014;-72
2022/11/04 01:49:52;;;;;;;;;;;9.60;99.90;;;;;;4955272;28;19936;-72
2022/11/04 01:52:22;;;;;;;;;;;9.60;99.90;;;;;;4957649;28;19958;-72
2022/11/04 01:54:50;;;;;;;;;;;9.60;99.90;;;;;;4959474;28;19926;-72
2022/11/04 01:57:22;;;;;;;;;;;9.60;99.90;;;;;;4959279;28;20407;-72
2022/11/04 01:59:50;;;;;;;;;;;9.60;99.90;;;;;;4956865;28;19930;-74
2022/11/04 02:02:18;;;;;;;;;;;9.60;99.90;;;;;;4954150;28;20396;-74
2022/11/04 02:04:45;;;;;;;;;;;9.60;99.90;;;;;;4958975;28;20013;-74
2022/11/04 02:07:12;;;;;;;;;;;9.60;99.90;;;;;;4953947;28;20024;-71
2022/11/04 02:09:40;;;;;;;;;;;9.60;99.90;;;;;;4958704;28;19929;-74
2022/11/04 02:14:51;;;;;;;;;;;9.60;99.90;;;;;;4955821;28;19933;-74
2022/11/04 02:17:27;;;;;;;;;;;9.60;99.90;;;;;;4956868;28;20020;-74
2022/11/04 02:19:59;;;;;;;;;;;9.60;99.90;;;;;;4958749;28;19926;-72
2022/11/04 02:22:41;;;;;;;;;;;9.60;99.90;;;;;;4964358;28;19980;-72
2022/11/04 02:25:24;;;;;;;;;;;9.60;99.90;;;;;;4967361;28;19940;-71
2022/11/04 02:28:02;;;;;;;;;;;9.60;99.90;;;;;;4954792;28;19930;-72
2022/11/04 02:30:34;;;;;;;;;;;9.60;99.90;;;;;;4959184;28;20404;-72
2022/11/04 02:33:09;;;;;;;;;;;9.60;99.90;;;;;;4953408;28;19965;-72
2022/11/04 02:35:40;;;;;;;;;;;9.60;99.90;;;;;;4956496;28;19996;-72
2022/11/04 02:38:12;;;;;;;;;;;9.60;99.90;;;;;;4957427;28;19954;-72
2022/11/04 02:40:41;;;;;;;;;;;9.60;99.90;;;;;;4975507;28;20013;-71
2022/11/04 02:43:12;;;;;;;;;;;9.60;99.90;;;;;;4953394;28;19934;-72
2022/11/04 02:45:41;;;;;;;;;;;9.60;99.90;;;;;;4964056;28;20048;-74
2022/11/04 02:48:11;;;;;;;;;;;9.60;99.90;;;;;;4961302;28;19926;-74
2022/11/04 02:50:42;;;;;;;;;;;9.60;99.90;;;;;;4954769;28;19926;-74
2022/11/04 02:53:14;;;;;;;;;;;9.60;99.90;;;;;;4957740;28;19937;-73
2022/11/04 02:55:43;;;;;;;;;;;9.60;99.90;;;;;;4975956;28;19973;-74
2022/11/04 02:58:12;;;;;;;;;;;9.60;99.90;;;;;;4959227;28;20324;-74
2022/11/04 03:00:42;;;;;;;;;;;9.60;99.90;;;;;;4958447;28;19933;-74
2022/11/04 03:03:10;;;;;;;;;;;9.60;99.90;;;;;;4957664;28;19927;-73
2022/11/04 03:05:39;;;;;;;;;;;9.60;99.90;;;;;;4956177;28;19930;-75
2022/11/04 03:08:10;;;;;;;;;;;9.60;99.90;;;;;;4956395;28;19939;-74
2022/11/04 03:10:38;;;;;;;;;;;9.60;99.90;;;;;;4957251;28;19993;-74
2022/11/04 03:13:08;;;;;;;;;;;9.60;99.90;;;;;;4957958;28;20319;-74
2022/11/04 03:15:37;;;;;;;;;;;9.60;99.90;;;;;;4961993;28;19961;-74
2022/11/04 03:20:38;;;;;;;;;;;9.50;99.90;;;;;;4979409;28;19926;-73
2022/11/04 03:23:05;;;;;;;;;;;9.60;99.90;;;;;;4992372;28;20402;-73
2022/11/04 03:25:36;;;;;;;;;;;9.60;99.90;;;;;;4991219;28;19976;-74
2022/11/04 03:28:13;;;;;;;;;;;9.60;99.90;;;;;;4993995;28;20490;-73
2022/11/04 03:30:42;;;;;;;;;;;9.60;99.90;;;;;;4994905;28;19964;-74
2022/11/04 03:33:15;;;;;;;;;;;9.60;99.90;;;;;;4999455;28;20024;-73
2022/11/04 03:35:43;;;;;;;;;;;9.60;99.90;;;;;;4988201;28;19925;-74
2022/11/04 03:38:10;;;;;;;;;;;9.60;99.90;;;;;;4992989;28;20399;-74
2022/11/04 03:40:37;;;;;;;;;;;9.60;99.90;;;;;;4998516;28;19925;-74
2022/11/04 03:43:05;;;;;;;;;;;9.60;99.90;;;;;;4993153;28;20322;-74
2022/11/04 03:45:32;;;;;;;;;;;9.60;99.90;;;;;;4992518;28;19976;-74
2022/11/04 03:48:00;;;;;;;;;;;9.50;99.90;;;;;;4997099;28;19926;-74
2022/11/04 03:50:28;;;;;;;;;;;9.50;99.90;;;;;;4998853;28;19945;-74
2022/11/04 03:52:56;;;;;;;;;;;9.50;99.90;;;;;;4986308;28;19941;-74
2022/11/04 03:55:27;;;;;;;;;;;9.50;99.90;;;;;;5004054;28;19965;-74
2022/11/04 03:57:56;;;;;;;;;;;9.50;99.90;;;;;;5001228;28;19932;-73
2022/11/04 04:00:23;;;;;;;;;;;9.50;99.90;;;;;;4992722;28;20390;-74
2022/11/04 04:02:57;;;;;;;;;;;9.50;99.90;;;;;;4994956;28;19930;-73
2022/11/04 04:05:27;;;;;;;;;;;9.50;99.90;;;;;;4999788;28;19961;-74
2022/11/04 04:07:56;;;;;;;;;;;9.50;99.90;;;;;;4993055;28;20426;-74
2022/11/04 04:10:41;;;;;;;;;;;9.50;99.90;;;;;;4987861;28;19997;-74
2022/11/04 04:13:14;;;;;;;;;;;9.40;99.90;;;;;;5000460;28;19980;-74
2022/11/04 04:15:44;;;;;;;;;;;9.40;99.90;;;;;;4995819;28;20032;-74
2022/11/04 04:18:13;;;;;;;;;;;9.40;99.90;;;;;;4993834;28;19925;-73
2022/11/04 04:20:40;;;;;;;;;;;9.50;99.90;;;;;;4997040;28;19980;-74
2022/11/04 04:28:37;;;;;;;;;;;9.50;99.90;;;;;;4992149;28;20334;-74
2022/11/04 04:31:04;;;;;;;;;;;9.50;99.90;;;;;;4993430;28;20020;-74
2022/11/04 04:33:31;;;;;;;;;;;9.40;99.90;;;;;;4997381;28;19977;-74
2022/11/04 04:35:58;;;;;;;;;;;9.50;99.90;;;;;;5000335;28;20418;-74
2022/11/04 04:46:43;;;;;;;;;;;9.50;99.90;;;;;;4994475;28;19940;-74
2022/11/04 04:49:10;;;;;;;;;;;9.50;99.90;;;;;;4992157;28;20355;-73
2022/11/04 04:51:39;;;;;;;;;;;9.40;99.90;;;;;;5007188;28;19925;-73
2022/11/04 04:54:06;;;;;;;;;;;9.40;99.90;;;;;;4993841;28;19926;-74
2022/11/04 04:56:34;;;;;;;;;;;9.40;99.90;;;;;;4991332;28;19932;-73
2022/11/04 04:59:01;;;;;;;;;;;9.40;99.90;;;;;;4994260;28;20318;-74
2022/11/04 05:01:27;;;;;;;;;;;9.40;99.90;;;;;;4996740;28;19926;-74
2022/11/04 05:03:54;;;;;;;;;;;9.40;99.90;;;;;;4989470;28;20445;-74
2022/11/04 05:06:21;;;;;;;;;;;9.40;99.90;;;;;;4992369;28;19980;-74
2022/11/04 05:08:48;;;;;;;;;;;9.40;99.90;;;;;;5001052;28;19947;-74
2022/11/04 05:11:15;;;;;;;;;;;9.40;99.90;;;;;;4991744;28;20307;-73
2022/11/04 05:13:43;;;;;;;;;;;9.40;99.90;;;;;;4998391;28;19948;-74
2022/11/04 05:16:10;;;;;;;;;;;9.40;99.90;;;;;;4990385;28;20710;-74
2022/11/04 05:18:37;;;;;;;;;;;9.40;99.90;;;;;;4996248;28;19965;-74
2022/11/04 05:21:04;;;;;;;;;;;9.40;99.90;;;;;;4993738;28;19926;-74
2022/11/04 05:23:31;;;;;;;;;;;9.40;99.90;;;;;;4991870;28;20378;-74
2022/11/04 05:25:58;;;;;;;;;;;9.40;99.90;;;;;;4988719;28;20011;-74
2022/11/04 05:28:25;;;;;;;;;;;9.40;99.90;;;;;;4995272;28;19953;-74
2022/11/04 05:30:53;;;;;;;;;;;9.40;99.90;;;;;;4992691;28;19926;-74
2022/11/04 05:33:20;;;;;;;;;;;9.40;99.90;;;;;;4994994;28;20017;-74
2022/11/04 05:35:47;;;;;;;;;;;9.40;99.90;;;;;;4994385;28;20394;-74
2022/11/04 05:38:14;;;;;;;;;;;9.40;99.90;;;;;;4987645;28;19980;-74
2022/11/04 05:40:40;;;;;;;;;;;9.50;99.90;;;;;;4998415;28;19985;-74
2022/11/04 05:43:07;;;;;;;;;;;9.40;99.90;;;;;;4992739;28;19926;-73
2022/11/04 05:45:34;;;;;;;;;;;9.40;99.90;;;;;;4994440;28;20681;-72
2022/11/04 05:48:03;;;;;;;;;;;9.40;99.90;;;;;;4994999;28;20004;-73
2022/11/04 05:50:32;;;;;;;;;;;9.40;99.90;;;;;;4988200;28;20071;-72
2022/11/04 05:52:59;;;;;;;;;;;9.40;99.90;;;;;;4985813;28;19934;-72
2022/11/04 05:55:26;;;;;;;;;;;9.40;99.90;;;;;;4985425;28;19929;-73
2022/11/04 05:57:53;;;;;;;;;;;9.40;99.90;;;;;;4978695;28;19929;-73
2022/11/04 06:00:20;;;;;;;;;;;9.40;99.90;;;;;;4977225;28;19940;-72
2022/11/04 06:02:46;;;;;;;;;;;9.40;99.90;;;;;;4983394;28;19973;-74
2022/11/04 06:05:15;;;;;;;;;;;9.40;99.90;;;;;;4977024;28;20520;-73
2022/11/04 06:07:42;;;;;;;;;;;9.30;99.90;;;;;;4990900;28;19929;-73
2022/11/04 06:10:11;;;;;;;;;;;9.30;99.90;;;;;;4979997;28;20019;-73
2022/11/04 06:12:38;;;;;;;;;;;9.40;99.90;;;;;;4982404;28;19926;-73
2022/11/04 06:15:06;;;;;;;;;;;9.40;99.90;;;;;;4991736;28;19933;-72
2022/11/04 06:17:32;;;;;;;;;;;9.30;99.90;;;;;;4992988;28;19926;-72
2022/11/04 06:19:59;;;;;;;;;;;9.30;99.90;;;;;;4993074;28;20016;-72
2022/11/04 06:22:27;;;;;;;;;;;9.30;99.90;;;;;;4981518;28;19929;-73
2022/11/04 06:24:54;;;;;;;;;;;9.30;99.90;;;;;;4988190;28;20194;-74
2022/11/04 06:27:24;;;;;;;;;;;9.40;99.90;;;;;;4980610;28;19940;-74
2022/11/04 06:29:52;;;;;;;;;;;9.30;99.90;;;;;;4969323;28;20453;-73
2022/11/04 06:32:19;;;;;;;;;;;9.30;99.90;;;;;;4988455;28;19930;-73
2022/11/04 06:34:46;;;;;;;;;;;9.30;99.90;;;;;;4980169;28;20367;-71
2022/11/04 06:37:13;;;;;;;;;;;9.30;99.90;;;;;;4979180;28;20328;-73
2022/11/04 06:39:41;;;;;;;;;;;9.30;99.90;;;;;;4978140;28;20502;-73
2022/11/04 06:42:08;;;;;;;;;;;9.30;99.90;;;;;;4973940;28;20442;-73
2022/11/04 06:44:35;;;;;;;;;;;9.30;99.90;;;;;;4976037;28;20888;-73
2022/11/04 06:47:02;;;;;;;;;;;9.20;99.90;;;;;;4984702;28;19929;-73
2022/11/04 06:49:29;;;;;;;;;;;9.20;99.90;;;;;;4988130;28;19926;-71
2022/11/04 06:51:56;;;;;;;;;;;9.30;99.90;;;;;;4988175;28;19926;-73
2022/11/04 06:54:23;;;;;;;;;;;9.30;99.90;;;;;;4989286;28;19930;-73
2022/11/04 06:56:51;;;;;;;;;;;9.40;99.90;;;;;;4978165;28;19941;-81
2022/11/04 06:59:19;;;;;;;;;;;9.30;99.90;;;;;;4980653;28;19975;-72
2022/11/04 07:01:46;;;;;;;;;;;9.30;99.90;;;;;;4986432;28;19940;-73
2022/11/04 07:04:13;;;;;;;;;;;9.30;99.90;;;;;;4990662;28;19932;-73
2022/11/04 07:06:41;;;;;;;;;;;9.30;99.90;;;;;;4989509;28;20009;-73
2022/11/04 07:09:10;;;;;;;;;;;9.30;99.90;;;;;;4986033;28;20417;-72
2022/11/04 07:11:37;;;;;;;;;;;9.30;99.90;;;;;;4992487;28;19926;-73
2022/11/04 07:14:07;;;;;;;;;;;9.30;99.90;;;;;;4970968;28;20776;-73
2022/11/04 07:16:34;;;;;;;;;;;9.30;99.90;;;;;;5004373;28;19977;-73
2022/11/04 07:19:01;;;;;;;;;;;9.30;99.90;;;;;;4990307;28;20465;-73
2022/11/04 07:21:28;;;;;;;;;;;9.40;99.90;;;;;;4992511;28;20379;-73
2022/11/04 07:23:55;;;;;;;;;;;9.40;99.90;;;;;;4984226;28;19926;-73
2022/11/04 07:26:21;;;;;;;;;;;9.40;99.90;;;;;;4994278;28;19934;-73
2022/11/04 07:28:48;;;;;;;;;;;9.40;99.90;;;;;;4987470;28;20411;-73
2022/11/04 07:31:17;;;;;;;;;;;9.30;99.90;;;;;;4984830;28;19952;-73
2022/11/04 07:33:48;;;;;;;;;;;9.40;99.90;;;;;;4986328;28;19936;-73
2022/11/04 07:36:15;;;;;;;;;;;9.40;99.90;;;;;;4987500;28;20406;-73
2022/11/04 07:38:42;;;;;;;;;;;9.30;99.90;;;;;;4987793;28;19925;-73
2022/11/04 07:41:11;;;;;;;;;;;9.40;99.90;;;;;;4978822;28;20495;-73
2022/11/04 07:43:41;;;;;;;;;;;9.40;99.90;;;;;;4973057;28;19951;-73
2022/11/04 07:46:09;;;;;;;;;;;9.30;99.90;;;;;;4976743;28;19934;-73
2022/11/04 07:48:38;;;;;;;;;;;9.30;99.90;;;;;;4972066;28;19933;-72
2022/11/04 07:51:06;;;;;;;;;;;9.30;99.90;;;;;;4987426;28;19932;-72
2022/11/04 07:53:33;;;;;;;;;;;9.40;99.90;;;;;;4987852;28;19933;-72
2022/11/04 07:56:03;;;;;;;;;;;9.30;99.90;;;;;;4991972;28;19925;-72
2022/11/04 07:58:30;;;;;;;;;;;9.40;99.90;;;;;;4987459;28;19926;-72
2022/11/04 08:01:00;;;;;;;;;;;9.40;99.90;;;;;;4990735;28;19936;-72
2022/11/04 08:03:27;;;;;;;;;;;9.30;99.90;;;;;;4992808;28;20423;-71
2022/11/04 08:05:58;;;;;;;;;;;9.30;99.90;;;;;;4987174;28;20012;-70
2022/11/04 08:08:26;;;;;;;;;;;9.30;99.90;;;;;;4994178;28;20723;-71
2022/11/04 08:10:55;;;;;;;;;;;9.30;99.90;;;;;;4978670;28;19937;-70
2022/11/04 08:13:22;;;;;;;;;;;9.30;99.90;;;;;;4994635;28;19934;-71
2022/11/04 08:15:50;;;;;;;;;;;9.40;99.90;;;;;;4974792;28;19956;-72
2022/11/04 08:18:20;;;;;;;;;;;9.40;99.90;;;;;;4979066;28;20162;-71
2022/11/04 08:20:48;;;;;;;;;;;9.30;99.90;;;;;;4978314;28;19980;-71
2022/11/04 08:23:17;;;;;;;;;;;9.40;99.90;;;;;;4986783;28;19926;-71
2022/11/04 08:25:44;;;;;;;;;;;9.40;99.90;;;;;;4990802;28;20300;-72
2022/11/04 08:28:16;;;;;;;;;;;9.40;99.90;;;;;;4987024;28;19929;-72
2022/11/04 08:30:51;;;;;;;;;;;9.40;99.90;;;;;;4980757;28;19937;-71
2022/11/04 08:33:18;;;;;;;;;;;9.30;99.90;;;;;;4987181;28;19944;-72
2022/11/04 08:35:45;;;;;;;;;;;9.40;99.90;;;;;;4993009;28;19936;-72
2022/11/04 08:38:12;;;;;;;;;;;9.30;99.90;;;;;;4990336;28;19937;-72
2022/11/04 08:40:40;;;;;;;;;;;9.40;99.90;;;;;;4982619;28;19968;-74
2022/11/04 08:43:07;;;;;;;;;;;9.30;99.90;;;;;;4984341;28;20045;-74
2022/11/04 08:45:34;;;;;;;;;;;9.30;99.90;;;;;;4993134;28;19936;-73
2022/11/04 08:48:01;;;;;;;;;;;9.30;99.90;;;;;;4993158;28;20016;-76
2022/11/04 08:50:30;;;;;;;;;;;9.30;99.90;;;;;;4982856;28;20632;-76
2022/11/04 08:52:57;;;;;;;;;;;9.40;99.90;;;;;;4979370;28;20027;-74
2022/11/04 08:55:24;;;;;;;;;;;9.40;99.90;;;;;;4981685;28;20027;-76
2022/11/04 08:57:53;;;;;;;;;;;9.40;99.90;;;;;;4989719;28;19926;-76
2022/11/04 09:00:20;;;;;;;;;;;9.40;99.90;;;;;;4975842;28;19954;-76
2022/11/04 09:02:47;;;;;;;;;;;9.40;99.90;;;;;;4974629;28;19933;-75
2022/11/04 09:05:14;;;;;;;;;;;9.30;99.90;;;;;;4974666;28;19926;-74
2022/11/04 09:07:41;;;;;;;;;;;9.40;99.90;;;;;;4990355;28;20025;-73
2022/11/04 09:10:11;;;;;;;;;;;9.40;99.90;;;;;;4995447;28;19929;-73
2022/11/04 09:12:38;;;;;;;;;;;9.40;99.90;;;;;;4992474;28;19933;-73
2022/11/04 09:15:07;;;;;;;;;;;9.40;99.90;;;;;;4990689;28;19972;-73
2022/11/04 09:17:34;;;;;;;;;;;9.40;99.90;;;;;;4989478;28;20065;-74
2022/11/04 09:20:00;;;;;;;;;;;9.30;99.90;;;;;;4990399;28;20004;-74
2022/11/04 09:22:27;;;;;;;;;;;9.40;99.90;;;;;;4983320;28;19937;-73
2022/11/04 09:24:54;;;;;;;;;;;9.30;99.90;;;;;;4993830;28;19949;-74
2022/11/04 09:27:21;;;;;;;;;;;9.40;99.90;;;;;;4996108;28;20059;-74
2022/11/04 09:29:48;;;;;;;;;;;9.40;99.90;;;;;;4995286;28;19930;-74
2022/11/04 09:34:46;;;;;;;;;;;9.40;99.90;;;;;;5031632;28;20413;-75
2022/11/04 09:37:16;;;;;;;;;;;9.30;99.90;;;;;;5039233;28;19956;-75
2022/11/04 09:39:42;;;;;;;;;;;9.40;99.90;;;;;;5039677;28;19925;-74
2022/11/04 09:42:24;;;;;;;;;;;9.30;99.90;;;;;;5016196;28;19933;-74
2022/11/04 09:44:53;;;;;;;;;;;9.40;99.90;;;;;;5018449;28;19975;-74
2022/11/04 09:47:22;;;;;;;;;;;9.30;99.90;;;;;;5021759;28;19929;-74
2022/11/04 09:49:53;;;;;;;;;;;9.40;99.90;;;;;;5014851;28;19936;-75
2022/11/04 09:52:21;;;;;;;;;;;9.40;99.90;;;;;;5003615;28;19984;-74
2022/11/04 09:54:52;;;;;;;;;;;9.40;99.90;;;;;;5018296;28;19929;-74
2022/11/04 09:57:19;;;;;;;;;;;9.30;99.90;;;;;;5019836;28;19929;-74
2022/11/04 09:59:47;;;;;;;;;;;9.40;99.90;;;;;;5016935;28;20027;-74
2022/11/04 10:02:22;;;;;;;;;;;9.40;99.90;;;;;;5017036;28;19925;-74
2022/11/04 10:04:56;;;;;;;;;;;9.40;99.90;;;;;;5017025;28;19925;-76
2022/11/04 10:07:30;;;;;;;;;;;9.40;99.90;;;;;;5015627;28;19932;-75
2022/11/04 10:10:03;;;;;;;;;;;9.40;99.90;;;;;;5009706;28;19933;-74
2022/11/04 10:12:40;;;;;;;;;;;9.40;99.90;;;;;;5018682;28;19929;-74
2022/11/04 10:15:18;;;;;;;;;;;9.40;99.90;;;;;;5015921;28;19930;-74
2022/11/04 10:17:51;;;;;;;;;;;9.40;99.90;;;;;;5013945;28;19952;-74
2022/11/04 10:20:23;;;;;;;;;;;9.40;99.90;;;;;;5017382;28;19930;-74
2022/11/04 10:22:56;;;;;;;;;;;9.40;99.90;;;;;;5016687;28;20319;-74
2022/11/04 10:25:25;;;;;;;;;;;9.40;99.90;;;;;;5010089;28;19926;-74
2022/11/04 10:27:52;;;;;;;;;;;9.40;99.90;;;;;;5020783;28;19925;-74
2022/11/04 10:30:20;;;;;;;;;;;9.40;99.90;;;;;;5015944;28;20395;-75
2022/11/04 10:32:51;;;;;;;;;;;9.40;99.90;;;;;;5021030;28;19929;-74
2022/11/04 10:35:22;;;;;;;;;;;9.40;99.90;;;;;;5006604;28;20471;-74
2022/11/04 10:37:52;;;;;;;;;;;9.40;99.90;;;;;;5015097;28;19939;-74
2022/11/04 10:40:21;;;;;;;;;;;9.50;99.90;;;;;;5013654;28;20264;-75
2022/11/04 10:42:48;;;;;;;;;;;9.50;99.90;;;;;;5016858;28;19929;-76
2022/11/04 10:45:15;;;;;;;;;;;9.50;99.90;;;;;;5011612;28;20334;-76
2022/11/04 10:47:47;;;;;;;;;;;9.50;99.90;;;;;;5019586;28;19937;-76
2022/11/04 10:50:26;;;;;;;;;;;9.50;99.90;;;;;;5016954;28;19976;-76
2022/11/04 10:53:02;;;;;;;;;;;9.50;99.90;;;;;;5017399;28;19929;-76
2022/11/04 10:55:35;;;;;;;;;;;9.50;99.90;;;;;;5011359;28;19944;-76
2022/11/04 10:58:02;;;;;;;;;;;9.50;99.90;;;;;;5020889;28;19925;-76
2022/11/04 11:00:33;;;;;;;;;;;9.50;99.90;;;;;;5011884;28;19995;-77
2022/11/04 11:03:00;;;;;;;;;;;9.50;99.90;;;;;;5015060;28;20297;-75
2022/11/04 11:05:28;;;;;;;;;;;9.50;99.90;;;;;;5019892;28;19933;-76
2022/11/04 11:07:57;;;;;;;;;;;9.60;99.90;;;;;;5023321;28;19979;-75
2022/11/04 11:10:25;;;;;;;;;;;9.50;99.90;;;;;;5015058;28;20006;-74
2022/11/04 11:12:56;;;;;;;;;;;9.50;99.90;;;;;;5021368;28;20418;-74
2022/11/04 11:15:28;;;;;;;;;;;9.60;99.90;;;;;;5016401;28;19933;-74
2022/11/04 11:18:11;;;;;;;;;;;9.60;99.90;;;;;;5011170;28;19932;-74
2022/11/04 11:20:39;;;;;;;;;;;9.60;99.90;;;;;;5018129;28;20446;-75
2022/11/04 11:23:29;;;;;;;;;;;9.60;99.90;;;;;;5025424;28;20357;-75
2022/11/04 11:25:57;;;;;;;;;;;9.70;99.90;;;;;;5019563;28;20063;-75
2022/11/04 11:28:29;;;;;;;;;;;9.60;99.90;;;;;;5016437;28;19933;-75
2022/11/04 11:30:57;;;;;;;;;;;9.60;99.90;;;;;;5019094;28;19935;-75
2022/11/04 11:33:26;;;;;;;;;;;9.60;99.90;;;;;;5019995;28;19972;-75
2022/11/04 11:35:54;;;;;;;;;;;9.60;99.90;;;;;;5014612;28;19957;-75
2022/11/04 11:38:23;;;;;;;;;;;9.60;99.90;;;;;;5023787;28;19964;-75
2022/11/04 11:40:51;;;;;;;;;;;9.60;99.90;;;;;;5024152;28;20423;-75
2022/11/04 11:43:23;;;;;;;;;;;9.60;99.90;;;;;;5014157;28;19925;-75
2022/11/04 11:45:50;;;;;;;;;;;9.70;99.90;;;;;;5018215;28;20527;-75
2022/11/04 11:48:31;;;;;;;;;;;9.60;99.90;;;;;;5015800;28;20042;-75
2022/11/04 11:50:58;;;;;;;;;;;9.70;99.90;;;;;;5022871;28;20014;-76
2022/11/04 11:53:28;;;;;;;;;;;9.70;99.90;;;;;;5019795;28;19972;-75
2022/11/04 11:55:59;;;;;;;;;;;9.70;99.90;;;;;;5016002;28;19926;-75
2022/11/04 11:58:29;;;;;;;;;;;9.70;99.90;;;;;;5022179;28;20586;-75
2022/11/04 12:01:00;;;;;;;;;;;9.70;99.90;;;;;;5013908;28;19933;-75
2022/11/04 12:03:31;;;;;;;;;;;9.70;99.90;;;;;;5018921;28;19929;-75
2022/11/04 12:06:13;;;;;;;;;;;9.70;99.90;;;;;;5022602;28;19925;-75
2022/11/04 12:08:55;;;;;;;;;;;9.70;99.90;;;;;;5026224;28;19925;-75
2022/11/04 12:11:27;;;;;;;;;;;9.70;99.90;;;;;;5010872;28;20038;-75
2022/11/04 12:13:55;;;;;;;;;;;9.70;99.90;;;;;;5015125;28;20307;-76
2022/11/04 12:16:29;;;;;;;;;;;9.70;99.90;;;;;;5016196;28;19933;-75
2022/11/04 12:19:04;;;;;;;;;;;9.80;99.90;;;;;;5012672;28;19926;-75
2022/11/04 12:21:33;;;;;;;;;;;9.80;99.90;;;;;;5024144;28;22140;-75
2022/11/04 12:24:06;;;;;;;;;;;9.80;99.90;;;;;;5016923;28;19978;-75
2022/11/04 12:26:38;;;;;;;;;;;9.80;99.90;;;;;;5021782;28;19933;-75
2022/11/04 12:29:19;;;;;;;;;;;9.80;99.90;;;;;;5007629;28;20048;-75
2022/11/04 12:31:51;;;;;;;;;;;9.80;99.90;;;;;;5026473;28;19929;-76
2022/11/04 12:34:27;;;;;;;;;;;9.90;99.90;;;;;;5019985;28;19925;-76
2022/11/04 12:36:59;;;;;;;;;;;9.80;99.90;;;;;;5020011;28;19991;-75
2022/11/04 12:39:33;;;;;;;;;;;9.90;99.90;;;;;;5019015;28;20004;-75
2022/11/04 12:42:07;;;;;;;;;;;9.90;99.90;;;;;;5016548;28;20595;-76
2022/11/04 12:44:37;;;;;;;;;;;9.90;99.90;;;;;;5015627;28;20021;-76
2022/11/04 12:47:10;;;;;;;;;;;9.90;99.90;;;;;;5020532;28;19926;-75
2022/11/04 12:49:44;;;;;;;;;;;9.90;99.90;;;;;;5015658;28;19926;-76
2022/11/04 12:52:19;;;;;;;;;;;9.90;99.90;;;;;;5037869;28;19955;-75
2022/11/04 12:54:53;;;;;;;;;;;9.90;99.90;;;;;;5014176;28;20023;-75
2022/11/04 12:57:25;;;;;;;;;;;9.90;99.90;;;;;;5018697;28;19953;-76
2022/11/04 13:00:05;;;;;;;;;;;9.90;99.90;;;;;;5014094;28;20024;-76
2022/11/04 13:02:35;;;;;;;;;;;9.90;99.90;;;;;;5014640;28;20303;-76
2022/11/04 13:05:06;;;;;;;;;;;10.00;99.90;;;;;;5016127;28;20345;-75
2022/11/04 13:07:35;;;;;;;;;;;10.00;99.90;;;;;;5018496;28;19933;-76
2022/11/04 13:10:05;;;;;;;;;;;10.00;99.90;;;;;;5017066;28;19968;-76
2022/11/04 13:12:36;;;;;;;;;;;10.00;99.90;;;;;;5014466;28;19932;-76
2022/11/04 13:15:05;;;;;;;;;;;10.00;99.90;;;;;;5014371;28;19972;-77
2022/11/04 13:17:33;;;;;;;;;;;10.00;99.90;;;;;;5022267;28;20000;-76
2022/11/04 13:20:01;;;;;;;;;;;10.00;99.90;;;;;;5016065;28;19969;-75
2022/11/04 13:22:30;;;;;;;;;;;10.00;99.90;;;;;;5016033;28;20401;-75
2022/11/04 13:24:59;;;;;;;;;;;10.00;99.90;;;;;;5015639;28;19969;-76
2022/11/04 13:27:28;;;;;;;;;;;10.00;99.90;;;;;;5021141;28;20110;-76
2022/11/04 13:30:00;;;;;;;;;;;10.10;99.90;;;;;;5020818;28;19961;-75
2022/11/04 13:32:30;;;;;;;;;;;10.10;99.90;;;;;;5015964;28;19971;-76
2022/11/04 13:34:59;;;;;;;;;;;10.10;99.90;;;;;;5020464;28;19929;-76
2022/11/04 13:37:27;;;;;;;;;;;10.10;99.90;;;;;;5018769;28;19971;-76
2022/11/04 13:39:57;;;;;;;;;;;10.10;99.90;;;;;;5011026;28;19925;-76
2022/11/04 13:42:38;;;;;;;;;;;10.10;99.90;;;;;;5015848;28;20315;-75
2022/11/04 13:45:10;;;;;;;;;;;10.10;99.90;;;;;;5016417;28;19929;-76
2022/11/04 13:47:43;;;;;;;;;;;10.10;99.90;;;;;;5015556;28;19926;-75
2022/11/04 13:50:27;;;;;;;;;;;10.10;99.90;;;;;;5013234;28;19965;-75
2022/11/04 13:52:54;;;;;;;;;;;10.10;99.90;;;;;;5022978;28;20012;-76
2022/11/04 13:55:21;;;;;;;;;;;10.10;99.90;;;;;;5014577;28;19932;-76
2022/11/04 13:57:50;;;;;;;;;;;10.20;99.90;;;;;;5017126;28;20028;-75
2022/11/04 14:00:21;;;;;;;;;;;10.20;99.90;;;;;;5014928;28;19933;-75
2022/11/04 14:02:48;;;;;;;;;;;10.20;99.90;;;;;;5012707;28;19929;-75
2022/11/04 14:05:42;;;;;;;;;;;10.20;99.90;;;;;;5013631;28;19933;-75
2022/11/04 14:08:10;;;;;;;;;;;10.20;99.90;;;;;;4992509;28;19929;-75
2022/11/04 14:10:38;;;;;;;;;;;10.20;99.90;;;;;;5007547;28;19964;-76
2022/11/04 14:13:24;;;;;;;;;;;10.20;99.90;;;;;;5019114;28;19976;-75
2022/11/04 14:16:02;;;;;;;;;;;10.20;99.90;;;;;;5013273;28;19964;-75
2022/11/04 14:18:30;;;;;;;;;;;10.20;99.90;;;;;;5014283;28;19929;-75
2022/11/04 14:21:08;;;;;;;;;;;10.20;99.90;;;;;;5013791;28;19933;-75
2022/11/04 14:23:36;;;;;;;;;;;10.20;99.90;;;;;;5027237;28;19972;-75
2022/11/04 14:26:04;;;;;;;;;;;10.20;99.90;;;;;;5022032;28;20627;-75
2022/11/04 14:28:32;;;;;;;;;;;10.20;99.90;;;;;;5018533;28;19929;-76
2022/11/04 14:30:59;;;;;;;;;;;10.20;99.90;;;;;;5017825;28;19925;-75
2022/11/04 14:33:32;;;;;;;;;;;10.30;99.90;;;;;;5013187;28;20386;-75
2022/11/04 14:36:13;;;;;;;;;;;10.30;99.90;;;;;;5017787;28;19926;-75
2022/11/04 14:38:40;;;;;;;;;;;10.30;99.90;;;;;;5019337;28;20071;-75
2022/11/04 14:41:20;;;;;;;;;;;10.30;99.90;;;;;;5012866;28;20412;-75
2022/11/04 14:43:47;;;;;;;;;;;10.30;99.90;;;;;;5018037;28;20449;-76
2022/11/04 14:46:21;;;;;;;;;;;10.30;99.90;;;;;;5017730;28;21813;-76
2022/11/04 14:48:52;;;;;;;;;;;10.30;99.90;;;;;;5018367;28;19933;-76
2022/11/04 14:51:22;;;;;;;;;;;10.30;99.90;;;;;;5017745;28;20299;-76
2022/11/04 14:53:49;;;;;;;;;;;10.30;99.90;;;;;;5014912;28;19925;-76
2022/11/04 14:56:17;;;;;;;;;;;10.30;99.90;;;;;;5031486;28;19925;-75
2022/11/04 14:58:51;;;;;;;;;;;10.30;99.90;;;;;;5019089;28;20413;-76
2022/11/04 15:01:18;;;;;;;;;;;10.30;99.90;;;;;;5020510;28;20287;-75
2022/11/04 15:03:46;;;;;;;;;;;10.30;99.90;;;;;;5018786;28;20063;-75
2022/11/04 15:06:23;;;;;;;;;;;10.30;99.90;;;;;;5014610;28;20049;-76
2022/11/04 15:08:50;;;;;;;;;;;10.30;99.90;;;;;;5010863;28;19987;-76
2022/11/04 15:12:49;;;;;;;;;;;10.30;99.90;;;;;;5012527;28;19965;-75
2022/11/04 15:14:13;;;;;;;;;;;10.30;99.90;;;;;;5007725;28;19971;-76
2022/11/04 15:16:40;;;;;;;;;;;10.30;99.90;;;;;;5014138;28;20012;-74
2022/11/04 15:19:08;;;;;;;;;;;10.30;99.90;;;;;;5007005;28;20353;-76